sensor_id;sensor_type;location;lat;lon;timestamp;P1;durP1;ratioP1;P2;durP2;ratioP2
25531;SDS011;13429;48.816;9.118;2022-10-16T00:00:10;5.60;;;1.60;;
25531;SDS011;13429;48.816;9.118;2022-10-16T00:05:40;4.72;;;1.20;;
25531;SDS011;13429;48.816;9.118;2022-10-16T00:16:39;2.03;;;1.05;;
25531;SDS011;13429;48.816;9.118;2022-10-16T00:25:40;2.95;;;1.10;;
25531;SDS011;13429;48.816;9.118;2022-10-16T00:31:10;5.60;;;0.98;;
25531;SDS011;13429;48.816;9.118;2022-10-16T00:36:40;3.90;;;0.95;;
25531;SDS011;13429;48.816;9.118;2022-10-16T00:42:14;1.60;;;1.00;;
25531;SDS011;13429;48.816;9.118;2022-10-16T00:47:44;1.25;;;0.70;;
25531;SDS011;13429;48.816;9.118;2022-10-16T00:53:17;3.90;;;1.10;;
25531;SDS011;13429;48.816;9.118;2022-10-16T00:58:47;1.45;;;1.05;;
25531;SDS011;13429;48.816;9.118;2022-10-16T01:04:17;3.35;;;1.15;;
25531;SDS011;13429;48.816;9.118;2022-10-16T01:09:56;1.67;;;1.10;;
25531;SDS011;13429;48.816;9.118;2022-10-16T01:21:10;1.67;;;1.00;;
25531;SDS011;13429;48.816;9.118;2022-10-16T01:43:57;2.03;;;0.98;;
25531;SDS011;13429;48.816;9.118;2022-10-16T01:49:31;2.17;;;1.08;;
25531;SDS011;13429;48.816;9.118;2022-10-16T01:55:02;5.05;;;0.88;;
25531;SDS011;13429;48.816;9.118;2022-10-16T02:00:32;1.77;;;0.93;;
25531;SDS011;13429;48.816;9.118;2022-10-16T02:06:02;3.10;;;0.95;;
25531;SDS011;13429;48.816;9.118;2022-10-16T02:11:32;2.40;;;1.05;;
25531;SDS011;13429;48.816;9.118;2022-10-16T02:17:01;1.58;;;0.80;;
25531;SDS011;13429;48.816;9.118;2022-10-16T02:31:18;2.67;;;0.90;;
25531;SDS011;13429;48.816;9.118;2022-10-16T02:36:50;7.50;;;1.23;;
25531;SDS011;13429;48.816;9.118;2022-10-16T02:42:20;4.30;;;0.93;;
25531;SDS011;13429;48.816;9.118;2022-10-16T02:47:50;2.72;;;1.20;;
25531;SDS011;13429;48.816;9.118;2022-10-16T02:53:19;1.95;;;0.80;;
25531;SDS011;13429;48.816;9.118;2022-10-16T02:58:48;3.53;;;1.08;;
25531;SDS011;13429;48.816;9.118;2022-10-16T03:04:18;1.92;;;0.80;;
25531;SDS011;13429;48.816;9.118;2022-10-16T03:09:48;3.22;;;1.02;;
25531;SDS011;13429;48.816;9.118;2022-10-16T03:15:17;3.88;;;1.00;;
25531;SDS011;13429;48.816;9.118;2022-10-16T03:20:47;2.20;;;1.13;;
25531;SDS011;13429;48.816;9.118;2022-10-16T03:35:39;1.73;;;1.10;;
25531;SDS011;13429;48.816;9.118;2022-10-16T03:41:09;3.70;;;1.30;;
25531;SDS011;13429;48.816;9.118;2022-10-16T03:46:38;2.33;;;1.00;;
25531;SDS011;13429;48.816;9.118;2022-10-16T03:52:07;4.93;;;1.35;;
25531;SDS011;13429;48.816;9.118;2022-10-16T03:57:37;3.58;;;1.45;;
25531;SDS011;13429;48.816;9.118;2022-10-16T04:03:07;4.72;;;1.25;;
25531;SDS011;13429;48.816;9.118;2022-10-16T04:08:36;2.13;;;1.00;;
25531;SDS011;13429;48.816;9.118;2022-10-16T04:14:07;3.42;;;1.20;;
25531;SDS011;13429;48.816;9.118;2022-10-16T04:19:37;3.42;;;1.02;;
25531;SDS011;13429;48.816;9.118;2022-10-16T04:25:07;7.90;;;1.25;;
25531;SDS011;13429;48.816;9.118;2022-10-16T04:40:00;1.98;;;1.23;;
25531;SDS011;13429;48.816;9.118;2022-10-16T04:45:30;2.90;;;1.27;;
25531;SDS011;13429;48.816;9.118;2022-10-16T04:50:59;4.35;;;1.20;;
25531;SDS011;13429;48.816;9.118;2022-10-16T04:56:28;3.20;;;0.90;;
25531;SDS011;13429;48.816;9.118;2022-10-16T05:01:58;2.67;;;1.25;;
25531;SDS011;13429;48.816;9.118;2022-10-16T05:07:27;3.65;;;1.48;;
25531;SDS011;13429;48.816;9.118;2022-10-16T05:12:57;3.10;;;1.45;;
25531;SDS011;13429;48.816;9.118;2022-10-16T05:18:26;2.90;;;1.08;;
25531;SDS011;13429;48.816;9.118;2022-10-16T05:23:56;2.67;;;1.38;;
25531;SDS011;13429;48.816;9.118;2022-10-16T05:29:25;4.05;;;1.48;;
25531;SDS011;13429;48.816;9.118;2022-10-16T05:44:17;2.97;;;1.10;;
25531;SDS011;13429;48.816;9.118;2022-10-16T05:49:47;2.25;;;1.40;;
25531;SDS011;13429;48.816;9.118;2022-10-16T05:55:16;2.92;;;1.40;;
25531;SDS011;13429;48.816;9.118;2022-10-16T06:00:52;1.77;;;1.13;;
25531;SDS011;13429;48.816;9.118;2022-10-16T06:06:23;4.00;;;1.27;;
25531;SDS011;13429;48.816;9.118;2022-10-16T06:11:53;3.30;;;1.42;;
25531;SDS011;13429;48.816;9.118;2022-10-16T06:17:23;4.90;;;1.52;;
25531;SDS011;13429;48.816;9.118;2022-10-16T06:22:52;2.72;;;1.35;;
25531;SDS011;13429;48.816;9.118;2022-10-16T06:28:22;6.30;;;1.33;;
25531;SDS011;13429;48.816;9.118;2022-10-16T06:33:51;4.10;;;1.40;;
25531;SDS011;13429;48.816;9.118;2022-10-16T06:39:21;3.78;;;1.50;;
25531;SDS011;13429;48.816;9.118;2022-10-16T06:44:50;3.10;;;1.45;;
25531;SDS011;13429;48.816;9.118;2022-10-16T06:50:20;3.15;;;1.15;;
25531;SDS011;13429;48.816;9.118;2022-10-16T06:55:49;4.53;;;1.40;;
25531;SDS011;13429;48.816;9.118;2022-10-16T07:01:20;3.00;;;1.50;;
25531;SDS011;13429;48.816;9.118;2022-10-16T07:06:49;4.45;;;1.17;;
25531;SDS011;13429;48.816;9.118;2022-10-16T07:12:20;2.72;;;1.13;;
25531;SDS011;13429;48.816;9.118;2022-10-16T07:17:49;3.65;;;1.35;;
25531;SDS011;13429;48.816;9.118;2022-10-16T07:23:19;2.17;;;1.10;;
25531;SDS011;13429;48.816;9.118;2022-10-16T07:28:48;6.32;;;1.13;;
25531;SDS011;13429;48.816;9.118;2022-10-16T07:40:25;2.60;;;1.05;;
25531;SDS011;13429;48.816;9.118;2022-10-16T07:45:55;2.85;;;1.00;;
25531;SDS011;13429;48.816;9.118;2022-10-16T07:51:25;3.30;;;1.38;;
25531;SDS011;13429;48.816;9.118;2022-10-16T07:56:55;2.03;;;1.08;;
25531;SDS011;13429;48.816;9.118;2022-10-16T08:02:24;3.40;;;1.10;;
25531;SDS011;13429;48.816;9.118;2022-10-16T08:07:54;2.67;;;1.02;;
25531;SDS011;13429;48.816;9.118;2022-10-16T08:13:24;4.00;;;1.35;;
25531;SDS011;13429;48.816;9.118;2022-10-16T08:18:55;3.30;;;1.30;;
25531;SDS011;13429;48.816;9.118;2022-10-16T08:24:24;4.10;;;1.15;;
25531;SDS011;13429;48.816;9.118;2022-10-16T08:29:54;4.80;;;1.30;;
25531;SDS011;13429;48.816;9.118;2022-10-16T08:50:00;4.43;;;1.10;;
25531;SDS011;13429;48.816;9.118;2022-10-16T08:55:33;4.13;;;1.45;;
25531;SDS011;13429;48.816;9.118;2022-10-16T09:01:04;3.20;;;1.10;;
25531;SDS011;13429;48.816;9.118;2022-10-16T09:06:45;1.80;;;0.95;;
25531;SDS011;13429;48.816;9.118;2022-10-16T09:23:57;4.47;;;1.30;;
25531;SDS011;13429;48.816;9.118;2022-10-16T09:29:26;1.98;;;0.70;;
25531;SDS011;13429;48.816;9.118;2022-10-16T09:41:13;3.78;;;1.20;;
25531;SDS011;13429;48.816;9.118;2022-10-16T09:46:43;4.50;;;0.90;;
25531;SDS011;13429;48.816;9.118;2022-10-16T09:52:14;2.65;;;0.80;;
25531;SDS011;13429;48.816;9.118;2022-10-16T09:57:52;2.85;;;0.88;;
25531;SDS011;13429;48.816;9.118;2022-10-16T10:03:28;6.25;;;1.65;;
25531;SDS011;13429;48.816;9.118;2022-10-16T10:09:23;3.65;;;0.90;;
25531;SDS011;13429;48.816;9.118;2022-10-16T10:14:53;1.45;;;0.70;;
25531;SDS011;13429;48.816;9.118;2022-10-16T10:31:34;5.40;;;0.98;;
25531;SDS011;13429;48.816;9.118;2022-10-16T10:40:45;2.85;;;1.45;;
25531;SDS011;13429;48.816;9.118;2022-10-16T10:46:39;4.95;;;1.67;;
25531;SDS011;13429;48.816;9.118;2022-10-16T10:52:22;4.28;;;1.48;;
25531;SDS011;13429;48.816;9.118;2022-10-16T11:09:36;11.88;;;1.30;;
25531;SDS011;13429;48.816;9.118;2022-10-16T11:15:11;1.95;;;1.13;;
25531;SDS011;13429;48.816;9.118;2022-10-16T11:20:42;5.13;;;1.30;;
25531;SDS011;13429;48.816;9.118;2022-10-16T11:26:16;9.27;;;1.58;;
25531;SDS011;13429;48.816;9.118;2022-10-16T11:31:48;2.53;;;0.77;;
25531;SDS011;13429;48.816;9.118;2022-10-16T11:46:20;2.47;;;0.88;;
25531;SDS011;13429;48.816;9.118;2022-10-16T11:52:02;2.00;;;0.75;;
25531;SDS011;13429;48.816;9.118;2022-10-16T11:57:59;1.80;;;1.10;;
25531;SDS011;13429;48.816;9.118;2022-10-16T12:03:33;4.53;;;1.25;;
25531;SDS011;13429;48.816;9.118;2022-10-16T12:09:03;1.65;;;1.00;;
25531;SDS011;13429;48.816;9.118;2022-10-16T12:14:34;2.28;;;1.05;;
25531;SDS011;13429;48.816;9.118;2022-10-16T12:25:42;3.22;;;0.98;;
25531;SDS011;13429;48.816;9.118;2022-10-16T12:51:48;2.40;;;1.20;;
25531;SDS011;13429;48.816;9.118;2022-10-16T13:08:58;1.58;;;0.85;;
25531;SDS011;13429;48.816;9.118;2022-10-16T13:26:40;3.33;;;0.80;;
25531;SDS011;13429;48.816;9.118;2022-10-16T13:32:14;1.10;;;0.90;;
25531;SDS011;13429;48.816;9.118;2022-10-16T13:46:59;2.60;;;0.82;;
25531;SDS011;13429;48.816;9.118;2022-10-16T14:39:17;3.08;;;1.05;;
25531;SDS011;13429;48.816;9.118;2022-10-16T14:44:48;2.47;;;1.42;;
25531;SDS011;13429;48.816;9.118;2022-10-16T14:50:21;5.15;;;1.30;;
25531;SDS011;13429;48.816;9.118;2022-10-16T14:55:51;3.08;;;1.27;;
25531;SDS011;13429;48.816;9.118;2022-10-16T15:01:20;2.85;;;1.17;;
25531;SDS011;13429;48.816;9.118;2022-10-16T15:06:50;3.58;;;1.55;;
25531;SDS011;13429;48.816;9.118;2022-10-16T15:12:19;5.85;;;1.27;;
25531;SDS011;13429;48.816;9.118;2022-10-16T15:17:52;4.10;;;1.45;;
25531;SDS011;13429;48.816;9.118;2022-10-16T15:23:24;1.75;;;1.23;;
25531;SDS011;13429;48.816;9.118;2022-10-16T15:28:54;2.53;;;1.45;;
25531;SDS011;13429;48.816;9.118;2022-10-16T15:34:23;2.80;;;1.30;;
25531;SDS011;13429;48.816;9.118;2022-10-16T15:46:01;3.33;;;1.30;;
25531;SDS011;13429;48.816;9.118;2022-10-16T15:51:31;2.13;;;1.48;;
25531;SDS011;13429;48.816;9.118;2022-10-16T15:57:02;2.47;;;1.42;;
25531;SDS011;13429;48.816;9.118;2022-10-16T16:02:31;4.93;;;1.55;;
25531;SDS011;13429;48.816;9.118;2022-10-16T16:08:01;14.20;;;1.77;;
25531;SDS011;13429;48.816;9.118;2022-10-16T16:13:30;3.03;;;1.20;;
25531;SDS011;13429;48.816;9.118;2022-10-16T16:19:00;2.25;;;1.50;;
25531;SDS011;13429;48.816;9.118;2022-10-16T16:24:29;5.10;;;1.88;;
25531;SDS011;13429;48.816;9.118;2022-10-16T16:30:00;2.25;;;1.42;;
25531;SDS011;13429;48.816;9.118;2022-10-16T16:35:29;4.85;;;2.00;;
25531;SDS011;13429;48.816;9.118;2022-10-16T16:50:10;6.85;;;2.88;;
25531;SDS011;13429;48.816;9.118;2022-10-16T16:55:40;4.35;;;3.05;;
25531;SDS011;13429;48.816;9.118;2022-10-16T17:01:09;4.68;;;3.50;;
25531;SDS011;13429;48.816;9.118;2022-10-16T17:06:39;7.72;;;3.70;;
25531;SDS011;13429;48.816;9.118;2022-10-16T17:12:08;8.75;;;3.20;;
25531;SDS011;13429;48.816;9.118;2022-10-16T17:17:38;4.68;;;3.13;;
25531;SDS011;13429;48.816;9.118;2022-10-16T17:23:08;6.05;;;3.13;;
25531;SDS011;13429;48.816;9.118;2022-10-16T17:28:39;5.93;;;3.67;;
25531;SDS011;13429;48.816;9.118;2022-10-16T17:34:10;5.65;;;3.00;;
25531;SDS011;13429;48.816;9.118;2022-10-16T17:39:40;4.13;;;2.70;;
25531;SDS011;13429;48.816;9.118;2022-10-16T17:54:32;4.55;;;2.72;;
25531;SDS011;13429;48.816;9.118;2022-10-16T18:00:03;6.57;;;4.80;;
25531;SDS011;13429;48.816;9.118;2022-10-16T18:05:36;9.82;;;5.35;;
25531;SDS011;13429;48.816;9.118;2022-10-16T18:11:05;7.95;;;4.55;;
25531;SDS011;13429;48.816;9.118;2022-10-16T18:16:35;10.98;;;4.20;;
25531;SDS011;13429;48.816;9.118;2022-10-16T18:22:06;10.70;;;3.67;;
25531;SDS011;13429;48.816;9.118;2022-10-16T18:27:36;9.70;;;4.50;;
25531;SDS011;13429;48.816;9.118;2022-10-16T18:33:05;9.70;;;4.35;;
25531;SDS011;13429;48.816;9.118;2022-10-16T18:39:01;7.28;;;4.30;;
25531;SDS011;13429;48.816;9.118;2022-10-16T18:50:38;9.27;;;4.53;;
25531;SDS011;13429;48.816;9.118;2022-10-16T18:56:08;8.95;;;3.95;;
25531;SDS011;13429;48.816;9.118;2022-10-16T19:01:38;8.18;;;3.97;;
25531;SDS011;13429;48.816;9.118;2022-10-16T19:07:07;9.20;;;3.72;;
25531;SDS011;13429;48.816;9.118;2022-10-16T19:12:37;6.35;;;3.13;;
25531;SDS011;13429;48.816;9.118;2022-10-16T19:18:08;4.65;;;2.97;;
25531;SDS011;13429;48.816;9.118;2022-10-16T19:23:38;6.93;;;3.25;;
25531;SDS011;13429;48.816;9.118;2022-10-16T19:29:08;5.93;;;3.25;;
25531;SDS011;13429;48.816;9.118;2022-10-16T19:34:38;5.38;;;3.38;;
25531;SDS011;13429;48.816;9.118;2022-10-16T19:40:07;5.18;;;3.60;;
25531;SDS011;13429;48.816;9.118;2022-10-16T19:54:35;3.25;;;2.25;;
25531;SDS011;13429;48.816;9.118;2022-10-16T20:00:06;6.07;;;2.85;;
25531;SDS011;13429;48.816;9.118;2022-10-16T20:05:36;3.75;;;2.33;;
25531;SDS011;13429;48.816;9.118;2022-10-16T20:11:09;5.25;;;2.08;;
25531;SDS011;13429;48.816;9.118;2022-10-16T20:16:39;3.47;;;2.38;;
25531;SDS011;13429;48.816;9.118;2022-10-16T20:22:09;3.20;;;2.05;;
25531;SDS011;13429;48.816;9.118;2022-10-16T20:27:38;2.63;;;1.80;;
25531;SDS011;13429;48.816;9.118;2022-10-16T20:33:08;4.13;;;1.85;;
25531;SDS011;13429;48.816;9.118;2022-10-16T20:38:38;3.08;;;1.73;;
25531;SDS011;13429;48.816;9.118;2022-10-16T20:44:07;6.55;;;2.38;;
25531;SDS011;13429;48.816;9.118;2022-10-16T20:53:09;6.78;;;1.90;;
25531;SDS011;13429;48.816;9.118;2022-10-16T20:58:38;6.65;;;2.28;;
25531;SDS011;13429;48.816;9.118;2022-10-16T21:04:09;6.30;;;2.10;;
25531;SDS011;13429;48.816;9.118;2022-10-16T21:09:38;8.57;;;2.15;;
25531;SDS011;13429;48.816;9.118;2022-10-16T21:15:08;5.65;;;2.58;;
25531;SDS011;13429;48.816;9.118;2022-10-16T21:20:44;5.10;;;2.85;;
25531;SDS011;13429;48.816;9.118;2022-10-16T21:26:13;3.55;;;2.08;;
25531;SDS011;13429;48.816;9.118;2022-10-16T21:31:43;5.05;;;2.47;;
25531;SDS011;13429;48.816;9.118;2022-10-16T21:37:12;7.00;;;2.10;;
25531;SDS011;13429;48.816;9.118;2022-10-16T21:42:42;7.18;;;2.63;;
25531;SDS011;13429;48.816;9.118;2022-10-16T21:48:11;5.30;;;2.60;;
25531;SDS011;13429;48.816;9.118;2022-10-16T21:57:11;6.90;;;2.40;;
25531;SDS011;13429;48.816;9.118;2022-10-16T22:02:40;6.78;;;2.47;;
25531;SDS011;13429;48.816;9.118;2022-10-16T22:08:10;5.50;;;2.58;;
25531;SDS011;13429;48.816;9.118;2022-10-16T22:13:39;3.33;;;2.38;;
25531;SDS011;13429;48.816;9.118;2022-10-16T22:19:09;4.75;;;2.42;;
25531;SDS011;13429;48.816;9.118;2022-10-16T22:24:39;7.75;;;2.67;;
25531;SDS011;13429;48.816;9.118;2022-10-16T22:30:09;6.85;;;2.97;;
25531;SDS011;13429;48.816;9.118;2022-10-16T22:35:39;9.48;;;2.58;;
25531;SDS011;13429;48.816;9.118;2022-10-16T22:41:10;4.43;;;2.00;;
25531;SDS011;13429;48.816;9.118;2022-10-16T22:46:39;5.63;;;2.38;;
25531;SDS011;13429;48.816;9.118;2022-10-16T22:52:09;4.18;;;2.40;;
25531;SDS011;13429;48.816;9.118;2022-10-16T23:07:30;7.32;;;3.38;;
25531;SDS011;13429;48.816;9.118;2022-10-16T23:12:59;4.40;;;2.88;;
25531;SDS011;13429;48.816;9.118;2022-10-16T23:18:29;4.70;;;2.60;;
25531;SDS011;13429;48.816;9.118;2022-10-16T23:23:58;10.32;;;3.42;;
25531;SDS011;13429;48.816;9.118;2022-10-16T23:29:28;4.90;;;3.05;;
25531;SDS011;13429;48.816;9.118;2022-10-16T23:34:58;9.23;;;3.55;;
25531;SDS011;13429;48.816;9.118;2022-10-16T23:40:34;12.27;;;3.22;;
25531;SDS011;13429;48.816;9.118;2022-10-16T23:46:03;8.90;;;3.33;;
25531;SDS011;13429;48.816;9.118;2022-10-16T23:51:33;6.95;;;3.47;;
